createdAt,value
2017-07-03T00:00:37.644Z,11.40
2017-07-03T00:03:06.744Z,11.40
2017-07-03T00:05:35.065Z,11.40
2017-07-03T00:08:03.403Z,11.40
2017-07-03T00:10:32.476Z,11.40
2017-07-03T00:13:01.572Z,11.30
2017-07-03T00:15:29.886Z,11.30
2017-07-03T00:17:58.579Z,11.30
2017-07-03T00:20:27.672Z,11.30
2017-07-03T00:22:56.377Z,11.40
2017-07-03T00:25:24.697Z,11.40
2017-07-03T00:27:53.005Z,11.30
2017-07-03T00:30:21.342Z,11.30
2017-07-03T00:32:49.689Z,11.40
2017-07-03T00:35:18.012Z,11.30
2017-07-03T00:37:46.704Z,11.20
2017-07-03T00:40:15.559Z,11.20
2017-07-03T00:42:43.884Z,11.20
2017-07-03T00:45:12.188Z,11.10
2017-07-03T00:47:40.511Z,11.20
2017-07-03T00:50:08.819Z,11.20
2017-07-03T00:52:37.165Z,11.20
2017-07-03T00:55:05.511Z,11.20
2017-07-03T00:57:33.840Z,11.20
2017-07-03T01:00:02.903Z,11.10
2017-07-03T01:02:31.229Z,11.10
2017-07-03T01:04:59.547Z,11.00
2017-07-03T01:07:27.856Z,11.10
2017-07-03T01:09:56.209Z,11.10
2017-07-03T01:12:24.682Z,11.00
2017-07-03T01:14:52.992Z,11.10
2017-07-03T01:17:22.052Z,11.00
2017-07-03T01:19:50.774Z,11.00
2017-07-03T01:22:19.126Z,11.00
2017-07-03T01:24:47.456Z,10.90
2017-07-03T01:27:16.545Z,10.90
2017-07-03T01:29:45.608Z,10.90
2017-07-03T01:32:14.732Z,10.90
2017-07-03T01:34:43.027Z,10.90
2017-07-03T01:37:11.737Z,11.00
2017-07-03T01:39:40.182Z,11.00
2017-07-03T01:42:08.494Z,10.90
2017-07-03T01:44:36.848Z,10.90
2017-07-03T01:47:05.921Z,10.90
2017-07-03T01:49:34.239Z,10.90
2017-07-03T01:52:03.141Z,10.90
2017-07-03T01:54:31.637Z,10.90
2017-07-03T01:57:00.934Z,10.90
2017-07-03T01:59:29.269Z,10.90
2017-07-03T02:01:57.563Z,10.70
2017-07-03T02:04:25.879Z,10.70
2017-07-03T02:06:54.217Z,10.60
2017-07-03T02:09:22.509Z,10.70
2017-07-03T02:11:51.566Z,10.70
2017-07-03T02:14:19.873Z,10.70
2017-07-03T02:16:48.181Z,10.80
2017-07-03T02:19:16.494Z,10.70
2017-07-03T02:21:45.558Z,10.70
2017-07-03T02:24:13.869Z,10.70
2017-07-03T02:26:42.967Z,10.70
2017-07-03T02:29:11.657Z,10.60
2017-07-03T02:31:40.371Z,10.90
2017-07-03T02:34:08.689Z,10.60
2017-07-03T02:36:37.774Z,10.60
2017-07-03T02:39:06.506Z,10.60
2017-07-03T02:41:36.340Z,10.50
2017-07-03T02:44:06.212Z,10.50
2017-07-03T02:46:35.517Z,10.50
2017-07-03T02:49:03.912Z,10.50
2017-07-03T02:51:32.633Z,10.50
2017-07-03T02:54:01.796Z,10.40
2017-07-03T02:56:30.513Z,10.40
2017-07-03T02:58:58.816Z,10.40
2017-07-03T03:01:27.145Z,10.40
2017-07-03T03:03:55.911Z,10.50
2017-07-03T03:06:24.197Z,10.40
2017-07-03T03:08:52.531Z,10.30
2017-07-03T03:11:21.679Z,10.30
2017-07-03T03:13:50.420Z,10.30
2017-07-03T03:16:18.730Z,10.30
2017-07-03T03:18:47.307Z,10.30
2017-07-03T03:21:15.593Z,10.40
2017-07-03T03:23:43.983Z,10.30
2017-07-03T03:26:12.307Z,10.30
2017-07-03T03:28:40.623Z,10.20
2017-07-03T03:31:09.331Z,10.20
2017-07-03T03:33:37.646Z,10.20
2017-07-03T03:36:06.327Z,10.20
2017-07-03T03:38:34.642Z,10.30
2017-07-03T03:41:02.972Z,10.20
2017-07-03T03:43:31.267Z,10.30
2017-07-03T03:45:59.582Z,10.30
2017-07-03T03:48:28.656Z,10.30
2017-07-03T03:50:56.992Z,10.30
2017-07-03T03:53:25.296Z,10.30
2017-07-03T03:55:53.649Z,10.40
2017-07-03T03:58:21.963Z,10.40
2017-07-03T04:00:50.323Z,10.40
2017-07-03T04:03:18.610Z,10.50
2017-07-03T04:05:46.938Z,10.50
2017-07-03T04:08:15.251Z,10.60
2017-07-03T04:10:43.585Z,10.60
2017-07-03T04:13:11.896Z,10.60
2017-07-03T04:15:40.224Z,10.70
2017-07-03T04:18:08.528Z,10.70
2017-07-03T04:20:36.860Z,10.70
2017-07-03T04:23:05.169Z,10.80
2017-07-03T04:25:33.505Z,10.90
2017-07-03T04:28:03.316Z,11.00
2017-07-03T04:30:31.659Z,11.10
2017-07-03T04:32:59.964Z,11.10
2017-07-03T04:35:28.304Z,11.20
2017-07-03T04:37:56.607Z,11.20
2017-07-03T04:40:24.904Z,11.40
2017-07-03T04:42:53.243Z,11.50
2017-07-03T04:45:21.649Z,11.60
2017-07-03T04:47:50.078Z,11.60
2017-07-03T04:50:18.441Z,11.70
2017-07-03T04:52:47.592Z,11.50
2017-07-03T04:55:15.916Z,11.50
2017-07-03T04:57:44.220Z,11.60
2017-07-03T05:00:12.531Z,11.70
2017-07-03T05:02:40.859Z,11.90
2017-07-03T05:05:09.182Z,11.90
2017-07-03T05:07:37.488Z,12.00
2017-07-03T05:10:05.811Z,12.10
2017-07-03T05:12:34.136Z,12.20
2017-07-03T05:15:03.307Z,12.30
2017-07-03T05:17:31.654Z,12.40
2017-07-03T05:19:59.966Z,12.40
2017-07-03T05:22:28.264Z,12.50
2017-07-03T05:24:56.564Z,12.50
2017-07-03T05:27:24.869Z,12.60
2017-07-03T05:29:53.271Z,12.60
2017-07-03T05:32:21.628Z,12.60
2017-07-03T05:34:49.970Z,12.60
2017-07-03T05:37:18.263Z,12.70
2017-07-03T05:39:46.568Z,12.70
2017-07-03T05:42:14.879Z,12.60
2017-07-03T05:44:43.980Z,12.60
2017-07-03T05:47:12.294Z,12.70
2017-07-03T05:49:40.598Z,12.80
2017-07-03T05:52:08.996Z,13.00
2017-07-03T05:54:37.277Z,13.00
2017-07-03T05:57:05.614Z,13.20
2017-07-03T05:59:33.912Z,13.20
2017-07-03T06:02:02.277Z,13.40
2017-07-03T06:04:30.727Z,13.60
2017-07-03T06:06:59.616Z,13.60
2017-07-03T06:09:28.578Z,13.60
2017-07-03T06:11:56.878Z,13.70
2017-07-03T06:14:25.235Z,13.70
2017-07-03T06:16:53.541Z,14.00
2017-07-03T06:19:21.890Z,14.00
2017-07-03T06:21:50.197Z,14.30
2017-07-03T06:24:18.539Z,14.20
2017-07-03T06:26:46.875Z,14.30
2017-07-03T06:29:15.582Z,14.10
2017-07-03T06:31:44.683Z,14.20
2017-07-03T06:34:12.993Z,14.20
2017-07-03T06:36:41.302Z,14.40
2017-07-03T06:39:09.611Z,14.80
2017-07-03T06:41:37.956Z,14.70
2017-07-03T06:44:06.275Z,14.80
2017-07-03T06:46:34.605Z,14.70
2017-07-03T06:49:02.936Z,14.80
2017-07-03T06:51:31.329Z,15.00
2017-07-03T06:53:59.665Z,15.10
2017-07-03T06:56:27.963Z,15.00
2017-07-03T06:58:56.277Z,15.10
2017-07-03T07:01:24.600Z,15.10
2017-07-03T07:03:52.966Z,15.10
2017-07-03T07:06:21.275Z,15.10
2017-07-03T07:08:49.596Z,15.10
2017-07-03T07:11:17.984Z,15.00
2017-07-03T07:13:46.313Z,14.50
2017-07-03T07:16:14.618Z,15.20
2017-07-03T07:18:42.965Z,15.30
2017-07-03T07:21:11.305Z,15.60
2017-07-03T07:23:40.384Z,15.70
2017-07-03T07:26:08.682Z,15.70
2017-07-03T07:28:37.765Z,15.80
2017-07-03T07:31:06.077Z,15.80
2017-07-03T07:33:34.396Z,16.10
2017-07-03T07:36:02.712Z,16.10
2017-07-03T07:38:31.803Z,16.20
2017-07-03T07:41:00.863Z,16.20
2017-07-03T07:43:29.248Z,16.20
2017-07-03T07:45:57.539Z,16.10
2017-07-03T07:48:25.903Z,16.30
2017-07-03T07:50:54.178Z,16.60
2017-07-03T07:53:22.482Z,16.60
2017-07-03T07:55:51.534Z,16.60
2017-07-03T07:58:19.866Z,16.80
2017-07-03T08:00:48.195Z,16.90
2017-07-03T08:03:16.511Z,16.80
2017-07-03T08:05:44.815Z,16.90
2017-07-03T08:08:13.134Z,17.10
2017-07-03T08:10:41.469Z,16.80
2017-07-03T08:13:09.800Z,16.60
2017-07-03T08:15:38.192Z,16.60
2017-07-03T08:18:07.256Z,16.50
2017-07-03T08:20:35.794Z,16.50
2017-07-03T08:23:04.087Z,16.50
2017-07-03T08:25:32.408Z,16.70
2017-07-03T08:28:01.476Z,16.80
2017-07-03T08:30:29.803Z,16.80
2017-07-03T08:32:58.102Z,16.90
2017-07-03T08:35:26.410Z,17.10
2017-07-03T08:37:54.718Z,17.30
2017-07-03T08:40:23.000Z,17.40
2017-07-03T08:42:51.323Z,17.70
2017-07-03T08:45:19.634Z,17.70
2017-07-03T08:47:47.939Z,18.00
2017-07-03T08:50:16.283Z,17.90
2017-07-03T08:52:44.596Z,17.90
2017-07-03T08:55:12.946Z,17.90
2017-07-03T08:57:42.039Z,18.40
2017-07-03T09:00:11.133Z,18.60
2017-07-03T09:02:40.207Z,18.40
2017-07-03T09:05:08.546Z,18.40
2017-07-03T09:07:36.883Z,18.40
2017-07-03T09:10:05.975Z,18.20
2017-07-03T09:12:34.663Z,18.30
2017-07-03T09:15:03.773Z,18.30
2017-07-03T09:17:32.066Z,18.50
2017-07-03T09:20:00.362Z,19.00
2017-07-03T09:22:28.696Z,19.30
2017-07-03T09:24:57.004Z,19.30
2017-07-03T09:27:25.389Z,19.20
2017-07-03T09:29:53.685Z,19.30
2017-07-03T09:32:22.009Z,19.30
2017-07-03T09:34:50.318Z,19.40
2017-07-03T09:37:18.657Z,19.60
2017-07-03T09:39:47.002Z,19.70
2017-07-03T09:42:15.324Z,19.30
2017-07-03T09:44:43.639Z,19.30
2017-07-03T09:47:11.957Z,19.30
2017-07-03T09:49:41.055Z,19.20
2017-07-03T09:52:10.408Z,19.40
2017-07-03T09:54:38.699Z,19.40
2017-07-03T09:57:07.025Z,19.60
2017-07-03T09:59:35.345Z,19.80
2017-07-03T10:02:03.676Z,19.90
2017-07-03T10:04:32.006Z,20.10
2017-07-03T10:07:00.337Z,20.00
2017-07-03T10:09:28.647Z,19.90
2017-07-03T10:11:56.995Z,19.60
2017-07-03T10:14:25.335Z,19.50
2017-07-03T10:16:54.396Z,19.40
2017-07-03T10:19:23.104Z,19.20
2017-07-03T10:21:52.201Z,19.40
2017-07-03T10:24:20.799Z,19.30
2017-07-03T10:26:49.105Z,20.20
2017-07-03T10:29:17.462Z,20.10
2017-07-03T10:31:45.765Z,20.10
2017-07-03T10:34:14.059Z,20.20
2017-07-03T10:36:43.922Z,20.20
2017-07-03T10:39:12.232Z,20.30
2017-07-03T10:41:40.530Z,20.10
2017-07-03T10:44:08.907Z,20.10
2017-07-03T10:46:37.204Z,20.60
2017-07-03T10:49:05.561Z,20.60
2017-07-03T10:51:34.520Z,20.90
2017-07-03T10:54:03.573Z,21.10
2017-07-03T10:56:32.794Z,21.20
2017-07-03T10:59:01.103Z,20.60
2017-07-03T11:01:29.418Z,20.80
2017-07-03T11:03:58.591Z,20.70
2017-07-03T11:06:26.894Z,20.60
2017-07-03T11:08:55.964Z,20.90
2017-07-03T11:11:24.279Z,20.80
2017-07-03T11:13:52.586Z,21.70
2017-07-03T11:16:20.917Z,21.70
2017-07-03T11:18:50.091Z,21.40
2017-07-03T11:21:18.400Z,21.40
2017-07-03T11:23:47.482Z,21.10
2017-07-03T11:26:16.582Z,21.10
2017-07-03T11:28:45.670Z,21.10
2017-07-03T11:31:14.023Z,21.00
2017-07-03T11:33:42.337Z,21.40
2017-07-03T11:36:11.598Z,21.60
2017-07-03T11:38:39.961Z,21.60
2017-07-03T11:41:08.255Z,21.60
2017-07-03T11:43:36.573Z,21.60
2017-07-03T11:46:04.894Z,21.90
2017-07-03T11:48:33.236Z,22.20
2017-07-03T11:51:01.597Z,22.30
2017-07-03T11:53:29.928Z,22.20
2017-07-03T11:55:58.215Z,21.80
2017-07-03T11:58:26.558Z,21.50
2017-07-03T12:00:54.868Z,21.30
2017-07-03T12:03:23.229Z,21.30
2017-07-03T12:05:51.563Z,21.30
2017-07-03T12:08:19.864Z,21.50
2017-07-03T12:10:48.187Z,21.90
2017-07-03T12:13:16.470Z,22.30
2017-07-03T12:15:45.559Z,22.60
2017-07-03T12:18:13.860Z,22.60
2017-07-03T12:20:42.202Z,22.80
2017-07-03T12:23:10.529Z,23.10
2017-07-03T12:25:38.825Z,23.40
2017-07-03T12:28:07.156Z,22.70
2017-07-03T12:30:36.217Z,22.90
2017-07-03T12:33:04.522Z,22.90
2017-07-03T12:35:33.622Z,23.20
2017-07-03T12:38:01.947Z,23.10
2017-07-03T12:40:30.250Z,23.00
2017-07-03T12:42:58.579Z,22.40
2017-07-03T12:45:26.935Z,22.10
2017-07-03T12:47:55.297Z,21.80
2017-07-03T12:50:23.601Z,21.70
2017-07-03T12:52:51.963Z,21.60
2017-07-03T12:55:21.057Z,21.30
2017-07-03T12:57:49.362Z,21.30
2017-07-03T13:00:17.752Z,21.50
2017-07-03T13:02:46.086Z,21.60
2017-07-03T13:05:15.182Z,21.70
2017-07-03T13:07:44.259Z,21.70
2017-07-03T13:10:12.627Z,21.70
2017-07-03T13:12:41.006Z,22.00
2017-07-03T13:15:09.371Z,22.30
2017-07-03T13:17:37.675Z,21.80
2017-07-03T13:20:05.955Z,21.40
2017-07-03T13:22:35.040Z,22.20
2017-07-03T13:25:04.103Z,22.00
2017-07-03T13:27:32.399Z,22.00
2017-07-03T13:30:00.737Z,21.90
2017-07-03T13:32:29.054Z,21.80
2017-07-03T13:34:57.356Z,21.80
2017-07-03T13:37:25.671Z,21.90
2017-07-03T13:39:54.013Z,22.10
2017-07-03T13:42:22.304Z,22.10
2017-07-03T13:44:50.851Z,22.20
2017-07-03T13:47:19.934Z,21.80
2017-07-03T13:49:48.228Z,21.80
2017-07-03T13:52:17.319Z,21.10
2017-07-03T13:54:46.414Z,21.10
2017-07-03T13:57:15.474Z,21.10
2017-07-03T13:59:43.809Z,21.10
2017-07-03T14:02:12.121Z,21.30
2017-07-03T14:04:40.430Z,21.50
2017-07-03T14:07:10.336Z,21.70
2017-07-03T14:09:38.679Z,21.60
2017-07-03T14:12:06.964Z,21.90
2017-07-03T14:14:35.308Z,21.90
2017-07-03T14:17:03.595Z,21.80
2017-07-03T14:19:31.923Z,21.50
2017-07-03T14:22:00.241Z,21.50
2017-07-03T14:24:28.539Z,21.30
2017-07-03T14:26:56.888Z,21.30
2017-07-03T14:29:25.193Z,21.30
2017-07-03T14:31:54.711Z,21.40
2017-07-03T14:34:23.819Z,21.40
2017-07-03T14:36:52.117Z,21.20
2017-07-03T14:39:21.200Z,21.00
2017-07-03T14:41:49.514Z,21.00
2017-07-03T14:44:17.850Z,20.90
2017-07-03T14:46:46.153Z,21.10
2017-07-03T14:49:14.477Z,21.70
2017-07-03T14:51:42.779Z,21.60
2017-07-03T14:54:11.107Z,21.50
2017-07-03T14:56:39.427Z,21.30
2017-07-03T14:59:07.776Z,21.10
2017-07-03T15:01:36.099Z,20.70
2017-07-03T15:04:05.227Z,20.50
2017-07-03T15:06:33.537Z,20.10
2017-07-03T15:09:02.037Z,20.00
2017-07-03T15:11:30.346Z,20.40
2017-07-03T15:13:58.660Z,20.50
2017-07-03T15:16:26.974Z,20.90
2017-07-03T15:18:56.053Z,21.90
2017-07-03T15:21:24.349Z,21.80
2017-07-03T15:23:53.436Z,21.80
2017-07-03T15:26:21.747Z,21.80
2017-07-03T15:28:50.044Z,21.40
2017-07-03T15:31:18.386Z,21.10
2017-07-03T15:33:47.460Z,20.90
2017-07-03T15:36:15.757Z,20.90
2017-07-03T15:38:44.063Z,21.00
2017-07-03T15:41:12.390Z,21.10
2017-07-03T15:43:41.480Z,21.30
2017-07-03T15:46:10.600Z,21.60
2017-07-03T15:48:39.008Z,21.60
2017-07-03T15:51:07.319Z,21.90
2017-07-03T15:53:35.634Z,21.90
2017-07-03T15:56:03.958Z,21.80
2017-07-03T15:58:32.254Z,21.90
2017-07-03T16:01:00.557Z,22.00
2017-07-03T16:03:28.884Z,21.80
2017-07-03T16:05:57.207Z,21.50
2017-07-03T16:08:25.501Z,21.10
2017-07-03T16:10:53.891Z,20.70
2017-07-03T16:13:22.206Z,20.70
2017-07-03T16:15:50.558Z,20.70
2017-07-03T16:18:18.856Z,20.50
2017-07-03T16:20:47.156Z,20.30
2017-07-03T16:23:16.300Z,20.10
2017-07-03T16:25:44.616Z,20.00
2017-07-03T16:28:12.912Z,19.90
2017-07-03T16:30:41.976Z,19.70
2017-07-03T16:33:10.380Z,19.70
2017-07-03T16:35:38.769Z,19.90
2017-07-03T16:38:07.096Z,19.90
2017-07-03T16:40:35.410Z,20.00
2017-07-03T16:43:04.514Z,20.00
2017-07-03T16:45:32.842Z,20.00
2017-07-03T16:48:04.212Z,19.90
2017-07-03T16:50:32.545Z,20.00
2017-07-03T16:53:00.867Z,20.20
2017-07-03T16:55:34.905Z,20.20
2017-07-03T16:58:03.211Z,20.10
2017-07-03T17:00:31.543Z,20.10
2017-07-03T17:03:00.649Z,20.00
2017-07-03T17:05:29.497Z,20.00
2017-07-03T17:07:57.893Z,20.10
2017-07-03T17:10:26.214Z,20.00
2017-07-03T17:12:54.547Z,19.60
2017-07-03T17:15:22.857Z,19.60
2017-07-03T17:17:51.228Z,19.50
2017-07-03T17:20:19.825Z,19.30
2017-07-03T17:22:48.136Z,19.20
2017-07-03T17:25:16.464Z,19.30
2017-07-03T17:27:44.795Z,19.30
2017-07-03T17:30:13.128Z,19.10
2017-07-03T17:32:41.572Z,18.60
2017-07-03T17:35:09.863Z,18.40
2017-07-03T17:37:38.208Z,18.20
2017-07-03T17:40:06.539Z,18.20
2017-07-03T17:42:35.232Z,18.00
2017-07-03T17:45:03.561Z,17.80
2017-07-03T17:47:32.627Z,17.70
2017-07-03T17:50:00.955Z,17.50
2017-07-03T17:52:29.271Z,17.60
2017-07-03T17:54:57.601Z,17.60
2017-07-03T17:57:26.671Z,17.60
2017-07-03T17:59:54.995Z,17.50
2017-07-03T18:02:23.311Z,17.50
2017-07-03T18:04:51.913Z,17.20
2017-07-03T18:07:20.977Z,17.20
2017-07-03T18:09:49.316Z,17.40
2017-07-03T18:12:17.658Z,17.50
2017-07-03T18:14:45.997Z,17.50
2017-07-03T18:17:14.750Z,17.40
2017-07-03T18:19:43.069Z,17.30
2017-07-03T18:22:11.564Z,17.30
2017-07-03T18:24:39.901Z,17.20
2017-07-03T18:27:08.857Z,16.30
2017-07-03T18:29:37.196Z,17.60
2017-07-03T18:32:05.497Z,17.60
2017-07-03T18:34:33.837Z,17.60
2017-07-03T18:37:02.148Z,17.50
2017-07-03T18:39:30.448Z,17.50
2017-07-03T18:41:59.530Z,17.30
2017-07-03T18:44:27.889Z,17.30
2017-07-03T18:46:56.187Z,17.20
2017-07-03T18:49:24.486Z,17.20
2017-07-03T18:51:52.828Z,17.00
2017-07-03T18:54:21.149Z,17.00
2017-07-03T18:56:49.469Z,17.10
2017-07-03T18:59:17.813Z,17.10
2017-07-03T19:01:46.573Z,17.10
2017-07-03T19:04:14.872Z,17.10
2017-07-03T19:06:43.240Z,17.10
2017-07-03T19:09:11.547Z,17.10
2017-07-03T19:11:40.204Z,17.00
2017-07-03T19:14:08.517Z,16.90
2017-07-03T19:16:37.045Z,16.90
2017-07-03T19:19:05.350Z,17.00
2017-07-03T19:21:33.631Z,16.90
2017-07-03T19:24:01.987Z,16.90
2017-07-03T19:26:30.309Z,16.80
2017-07-03T19:28:58.708Z,16.80
2017-07-03T19:31:27.004Z,16.90
2017-07-03T19:33:56.081Z,16.80
2017-07-03T19:36:24.473Z,16.80
2017-07-03T19:38:53.547Z,16.90
2017-07-03T19:41:21.902Z,16.80
2017-07-03T19:43:50.219Z,16.90
2017-07-03T19:46:19.305Z,16.70
2017-07-03T19:48:47.659Z,16.80
2017-07-03T19:51:16.088Z,16.80
2017-07-03T19:53:44.444Z,16.80
2017-07-03T19:56:13.598Z,16.60
2017-07-03T19:58:43.134Z,16.60
2017-07-03T20:01:12.207Z,16.60
2017-07-03T20:03:40.533Z,16.60
2017-07-03T20:06:08.828Z,16.50
2017-07-03T20:08:37.235Z,16.50
2017-07-03T20:11:05.551Z,16.40
2017-07-03T20:13:33.851Z,16.30
2017-07-03T20:16:02.191Z,16.20
2017-07-03T20:18:30.524Z,16.30
2017-07-03T20:20:58.821Z,16.10
2017-07-03T20:23:27.125Z,16.10
2017-07-03T20:25:56.221Z,16.00
2017-07-03T20:28:25.325Z,16.00
2017-07-03T20:30:54.409Z,16.00
2017-07-03T20:33:23.580Z,15.90
2017-07-03T20:35:51.909Z,15.80
2017-07-03T20:38:20.252Z,15.70
2017-07-03T20:40:49.323Z,15.70
2017-07-03T20:43:17.631Z,15.60
2017-07-03T20:45:46.732Z,15.60
2017-07-03T20:48:15.053Z,15.60
2017-07-03T20:50:43.384Z,15.60
2017-07-03T20:53:12.543Z,15.60
2017-07-03T20:55:40.846Z,15.50
2017-07-03T20:58:09.183Z,15.60
2017-07-03T21:00:37.575Z,15.50
2017-07-03T21:03:05.976Z,15.60
2017-07-03T21:05:35.049Z,15.60
2017-07-03T21:08:03.355Z,15.50
2017-07-03T21:10:31.693Z,15.50
2017-07-03T21:13:00.000Z,15.50
2017-07-03T21:15:31.566Z,15.50
2017-07-03T21:18:00.621Z,15.50
2017-07-03T21:20:28.928Z,15.50
2017-07-03T21:22:58.027Z,15.40
2017-07-03T21:25:27.099Z,15.30
2017-07-03T21:27:56.222Z,15.30
2017-07-03T21:30:25.287Z,15.30
2017-07-03T21:32:53.752Z,15.20
2017-07-03T21:35:22.051Z,15.10
2017-07-03T21:37:51.118Z,15.00
2017-07-03T21:40:19.478Z,15.00
2017-07-03T21:42:47.822Z,15.10
2017-07-03T21:45:16.223Z,15.10
2017-07-03T21:47:44.542Z,15.10
2017-07-03T21:50:12.847Z,15.20
2017-07-03T21:52:41.937Z,15.10
2017-07-03T21:55:10.996Z,15.00
2017-07-03T21:57:39.343Z,15.00
2017-07-03T22:00:07.688Z,15.00
2017-07-03T22:02:36.768Z,15.10
2017-07-03T22:05:05.113Z,15.00
2017-07-03T22:07:33.421Z,15.00
2017-07-03T22:10:01.796Z,15.00
2017-07-03T22:12:30.189Z,15.00
2017-07-03T22:14:59.303Z,15.10
2017-07-03T22:17:27.628Z,15.10
2017-07-03T22:19:56.164Z,15.10
2017-07-03T22:22:24.504Z,15.00
2017-07-03T22:24:52.795Z,15.00
2017-07-03T22:27:21.132Z,14.90
2017-07-03T22:29:49.437Z,14.90
2017-07-03T22:32:17.771Z,14.80
2017-07-03T22:34:46.060Z,14.90
2017-07-03T22:37:14.406Z,15.00
2017-07-03T22:39:42.804Z,15.10
2017-07-03T22:42:11.107Z,15.20
2017-07-03T22:44:39.442Z,15.20
2017-07-03T22:47:07.795Z,15.30
2017-07-03T22:49:36.157Z,15.20
2017-07-03T22:52:05.218Z,15.20
2017-07-03T22:54:33.592Z,15.20
2017-07-03T22:57:01.922Z,15.30
2017-07-03T22:59:30.354Z,15.20
2017-07-03T23:01:58.635Z,15.20
2017-07-03T23:04:27.002Z,15.20
2017-07-03T23:06:55.282Z,15.20
2017-07-03T23:09:23.624Z,15.10
2017-07-03T23:11:51.978Z,15.10
2017-07-03T23:14:20.305Z,15.10
2017-07-03T23:16:48.604Z,15.00
2017-07-03T23:19:16.925Z,15.00
2017-07-03T23:21:45.248Z,15.00
2017-07-03T23:24:13.575Z,14.90
2017-07-03T23:26:41.894Z,15.00
2017-07-03T23:29:10.668Z,15.10
2017-07-03T23:31:38.965Z,15.10
2017-07-03T23:34:07.303Z,15.00
2017-07-03T23:36:35.616Z,14.90
2017-07-03T23:39:04.714Z,14.80
2017-07-03T23:41:33.026Z,14.80
2017-07-03T23:44:01.357Z,14.80
2017-07-03T23:46:30.482Z,14.90
2017-07-03T23:48:59.547Z,14.80
2017-07-03T23:51:27.872Z,14.80
2017-07-03T23:53:57.357Z,14.70
2017-07-03T23:56:26.450Z,14.50
2017-07-03T23:58:54.795Z,14.60
